createdAt,value
2023-02-24T00:00:31.482Z,3.86
2023-02-24T00:03:05.641Z,3.88
2023-02-24T00:05:39.594Z,3.91
2023-02-24T00:08:07.740Z,3.93
2023-02-24T00:10:36.970Z,3.97
2023-02-24T00:13:05.439Z,4.03
2023-02-24T00:15:33.417Z,4.07
2023-02-24T00:18:06.609Z,4.10
2023-02-24T00:20:35.082Z,4.10
2023-02-24T00:23:03.461Z,4.12
2023-02-24T00:25:31.814Z,4.16
2023-02-24T00:28:01.098Z,4.19
2023-02-24T00:30:30.924Z,4.22
2023-02-24T00:33:00.858Z,4.26
2023-02-24T00:35:29.868Z,4.30
2023-02-24T00:37:58.140Z,4.33
2023-02-24T00:40:26.342Z,4.36
2023-02-24T00:42:54.569Z,4.40
2023-02-24T00:45:22.851Z,4.41
2023-02-24T00:47:50.962Z,4.43
2023-02-24T00:50:19.442Z,4.46
2023-02-24T00:52:49.649Z,4.49
2023-02-24T00:55:18.648Z,4.52
2023-02-24T00:57:50.194Z,4.53
2023-02-24T01:00:20.805Z,4.55
2023-02-24T01:02:48.992Z,4.57
2023-02-24T01:05:17.228Z,4.59
2023-02-24T01:07:45.430Z,4.58
2023-02-24T01:10:13.421Z,4.60
2023-02-24T01:12:51.345Z,4.61
2023-02-24T01:15:23.125Z,4.62
2023-02-24T01:17:52.163Z,4.65
2023-02-24T01:20:21.183Z,4.68
2023-02-24T01:22:53.399Z,4.70
2023-02-24T01:25:22.420Z,4.73
2023-02-24T01:27:52.283Z,4.75
2023-02-24T01:30:21.019Z,4.75
2023-02-24T01:32:50.391Z,4.78
2023-02-24T01:35:19.976Z,4.80
2023-02-24T01:37:49.921Z,4.83
2023-02-24T01:40:20.701Z,4.85
2023-02-24T01:42:50.186Z,4.85
2023-02-24T01:45:25.142Z,4.87
2023-02-24T01:47:57.195Z,4.90
2023-02-24T01:50:26.589Z,4.91
2023-02-24T01:52:59.842Z,4.93
2023-02-24T01:55:33.076Z,4.94
2023-02-24T01:58:05.497Z,4.95
2023-02-24T02:00:37.688Z,4.96
2023-02-24T02:03:13.473Z,4.97
2023-02-24T02:05:44.620Z,4.99
2023-02-24T02:08:13.978Z,5.00
2023-02-24T02:10:44.014Z,5.01
2023-02-24T02:13:19.872Z,5.02
2023-02-24T02:16:05.564Z,5.03
2023-02-24T02:18:55.725Z,5.03
2023-02-24T02:21:44.962Z,5.01
2023-02-24T02:24:49.906Z,5.02
2023-02-24T02:27:36.373Z,5.03
2023-02-24T02:30:40.032Z,5.02
2023-02-24T02:33:43.582Z,5.02
2023-02-24T02:36:18.931Z,5.03
2023-02-24T02:38:57.837Z,5.03
2023-02-24T02:41:31.252Z,5.02
2023-02-24T02:44:08.116Z,5.02
2023-02-24T02:46:41.126Z,5.03
2023-02-24T02:49:18.949Z,5.03
2023-02-24T02:51:53.218Z,5.05
2023-02-24T02:54:28.499Z,5.07
2023-02-24T02:57:04.641Z,5.09
2023-02-24T02:59:37.492Z,5.10
2023-02-24T03:02:14.315Z,5.10
2023-02-24T03:04:47.958Z,5.12
2023-02-24T03:07:19.166Z,5.14
2023-02-24T03:09:55.828Z,5.16
2023-02-24T03:12:26.407Z,5.18
2023-02-24T03:14:59.401Z,5.19
2023-02-24T03:17:30.526Z,5.20
2023-02-24T03:20:14.422Z,5.18
2023-02-24T03:22:51.402Z,5.18
2023-02-24T03:25:29.361Z,5.21
2023-02-24T03:28:05.388Z,5.25
2023-02-24T03:30:40.531Z,5.28
2023-02-24T03:33:16.845Z,5.32
2023-02-24T03:35:45.718Z,5.35
2023-02-24T03:38:14.615Z,5.37
2023-02-24T03:40:43.020Z,5.41
2023-02-24T03:43:19.094Z,5.45
2023-02-24T03:45:46.603Z,5.48
2023-02-24T03:48:15.538Z,5.51
2023-02-24T03:50:44.927Z,5.53
2023-02-24T03:53:33.158Z,5.57
2023-02-24T03:56:22.166Z,5.61
2023-02-24T03:59:04.211Z,5.66
2023-02-24T04:01:41.823Z,5.71
2023-02-24T04:04:19.665Z,5.75
2023-02-24T04:06:59.546Z,5.77
2023-02-24T04:09:38.904Z,5.81
2023-02-24T04:12:18.160Z,5.84
2023-02-24T04:14:51.374Z,5.86
2023-02-24T04:17:22.326Z,5.89
2023-02-24T04:19:55.190Z,5.91
2023-02-24T04:22:26.642Z,5.93
2023-02-24T04:24:59.871Z,5.95
2023-02-24T04:27:28.940Z,5.97
2023-02-24T04:30:04.253Z,5.99
2023-02-24T04:32:33.384Z,6.02
2023-02-24T04:35:09.385Z,6.04
2023-02-24T04:37:39.818Z,6.05
2023-02-24T04:40:11.262Z,6.06
2023-02-24T04:42:45.795Z,6.08
2023-02-24T04:45:16.304Z,6.10
2023-02-24T04:47:48.803Z,6.13
2023-02-24T04:50:22.509Z,6.15
2023-02-24T04:52:52.687Z,6.18
2023-02-24T04:55:22.107Z,6.21
2023-02-24T04:57:52.115Z,6.22
2023-02-24T05:00:22.303Z,6.22
2023-02-24T05:02:55.959Z,6.23
2023-02-24T05:05:25.481Z,6.23
2023-02-24T05:07:55.389Z,6.23
2023-02-24T05:10:27.502Z,6.24
2023-02-24T05:12:57.897Z,6.25
2023-02-24T05:15:30.754Z,6.28
2023-02-24T05:18:00.254Z,6.29
2023-02-24T05:20:46.918Z,6.29
2023-02-24T05:23:16.594Z,6.30
2023-02-24T05:25:45.161Z,6.32
2023-02-24T05:28:13.344Z,6.34
2023-02-24T05:30:41.461Z,6.35
2023-02-24T05:33:10.944Z,6.35
2023-02-24T05:35:42.743Z,6.36
2023-02-24T05:38:11.040Z,6.37
2023-02-24T05:40:45.868Z,6.39
2023-02-24T05:43:17.629Z,6.41
2023-02-24T05:45:46.152Z,6.41
2023-02-24T05:48:14.845Z,6.43
2023-02-24T05:50:51.669Z,6.44
2023-02-24T05:53:20.400Z,6.46
2023-02-24T05:55:48.735Z,6.49
2023-02-24T05:58:17.193Z,6.50
2023-02-24T06:00:46.212Z,6.53
2023-02-24T06:03:17.000Z,6.55
2023-02-24T06:05:55.036Z,6.56
2023-02-24T06:08:24.225Z,6.58
2023-02-24T06:10:53.189Z,6.59
2023-02-24T06:13:21.306Z,6.59
2023-02-24T06:15:54.483Z,6.59
2023-02-24T06:18:22.508Z,6.60
2023-02-24T06:20:50.583Z,6.61
2023-02-24T06:23:18.873Z,6.62
2023-02-24T06:25:46.802Z,6.63
2023-02-24T06:28:19.576Z,6.65
2023-02-24T06:30:47.760Z,6.67
2023-02-24T06:33:16.325Z,6.68
2023-02-24T06:35:44.404Z,6.70
2023-02-24T06:38:14.191Z,6.72
2023-02-24T06:40:47.027Z,6.74
2023-02-24T06:43:15.096Z,6.76
2023-02-24T06:45:44.803Z,6.77
2023-02-24T06:48:13.291Z,6.79
2023-02-24T06:50:42.967Z,6.78
2023-02-24T06:53:16.862Z,6.82
2023-02-24T06:55:48.225Z,6.83
2023-02-24T06:58:19.562Z,6.84
2023-02-24T07:00:56.245Z,6.84
2023-02-24T07:03:38.646Z,6.86
2023-02-24T07:06:19.762Z,6.87
2023-02-24T07:08:48.360Z,6.90
2023-02-24T07:11:18.435Z,6.93
2023-02-24T07:13:48.617Z,6.95
2023-02-24T07:16:19.253Z,6.96
2023-02-24T07:18:48.228Z,6.98
2023-02-24T07:21:20.497Z,7.01
2023-02-24T07:23:49.662Z,7.04
2023-02-24T07:26:22.601Z,7.08
2023-02-24T07:28:54.405Z,7.09
2023-02-24T07:31:25.318Z,7.10
2023-02-24T07:33:56.506Z,7.12
2023-02-24T07:36:29.336Z,7.15
2023-02-24T07:38:58.805Z,7.18
2023-02-24T07:41:28.455Z,7.20
2023-02-24T07:44:00.135Z,7.21
2023-02-24T07:46:31.745Z,7.24
2023-02-24T07:49:00.907Z,7.27
2023-02-24T07:51:30.313Z,7.31
2023-02-24T07:54:00.833Z,7.33
2023-02-24T07:56:30.573Z,7.35
2023-02-24T07:59:01.528Z,7.38
2023-02-24T08:01:38.217Z,7.40
2023-02-24T08:04:08.449Z,7.42
2023-02-24T08:06:39.022Z,7.44
2023-02-24T08:09:16.197Z,7.46
2023-02-24T08:11:46.894Z,7.49
2023-02-24T08:14:15.606Z,7.52
2023-02-24T08:16:45.735Z,7.54
2023-02-24T08:19:20.387Z,7.56
2023-02-24T08:21:50.195Z,7.59
2023-02-24T08:24:25.359Z,7.61
2023-02-24T08:27:04.647Z,7.62
2023-02-24T08:29:39.572Z,7.63
2023-02-24T08:32:09.030Z,7.66
2023-02-24T08:34:37.765Z,7.68
2023-02-24T08:37:06.286Z,7.71
2023-02-24T08:39:35.882Z,7.72
2023-02-24T08:42:04.235Z,7.74
2023-02-24T08:44:34.523Z,7.75
2023-02-24T08:47:04.624Z,7.78
2023-02-24T08:49:33.228Z,7.78
2023-02-24T08:52:02.012Z,7.80
2023-02-24T08:54:31.478Z,7.82
2023-02-24T08:57:07.756Z,7.83
2023-02-24T08:59:37.865Z,7.84
2023-02-24T09:02:18.049Z,7.83
2023-02-24T09:04:48.145Z,7.85
2023-02-24T09:07:18.347Z,7.86
2023-02-24T09:09:46.620Z,7.86
2023-02-24T09:12:21.451Z,7.88
2023-02-24T09:14:54.817Z,7.87
2023-02-24T09:17:40.530Z,7.86
2023-02-24T09:20:43.024Z,7.84
2023-02-24T09:23:19.440Z,7.85
2023-02-24T09:25:49.197Z,7.88
2023-02-24T09:28:19.837Z,7.92
2023-02-24T09:31:07.438Z,7.97
2023-02-24T09:33:38.478Z,8.03
2023-02-24T09:36:12.471Z,8.08
2023-02-24T09:39:00.539Z,8.13
2023-02-24T09:41:52.711Z,8.19
2023-02-24T09:44:32.764Z,8.23
2023-02-24T09:47:09.462Z,8.30
2023-02-24T09:49:47.824Z,8.36
2023-02-24T09:52:18.605Z,8.40
2023-02-24T09:55:14.293Z,8.44
2023-02-24T09:58:25.012Z,8.47
2023-02-24T10:01:20.293Z,8.51
2023-02-24T10:04:08.779Z,8.54
2023-02-24T10:06:48.703Z,8.57
2023-02-24T10:09:23.982Z,8.60
2023-02-24T10:11:55.028Z,8.63
2023-02-24T10:14:37.962Z,8.66
2023-02-24T10:17:30.023Z,8.70
2023-02-24T10:20:13.225Z,8.74
2023-02-24T10:22:50.042Z,8.76
2023-02-24T10:25:35.491Z,8.78
2023-02-24T10:28:15.660Z,8.80
2023-02-24T10:31:03.327Z,8.82
2023-02-24T10:33:38.306Z,8.82
2023-02-24T10:36:10.148Z,8.82
2023-02-24T10:38:44.905Z,8.85
2023-02-24T10:41:14.359Z,8.88
2023-02-24T10:43:55.429Z,8.92
2023-02-24T10:46:41.133Z,8.95
2023-02-24T10:49:15.650Z,8.97
2023-02-24T10:51:47.767Z,8.96
2023-02-24T10:54:54.324Z,8.95
2023-02-24T10:57:36.117Z,8.91
2023-02-24T11:00:50.883Z,8.84
2023-02-24T11:03:35.414Z,8.78
2023-02-24T11:06:19.570Z,8.72
2023-02-24T11:09:18.477Z,8.68
2023-02-24T11:12:05.953Z,8.64
2023-02-24T11:15:04.241Z,8.60
2023-02-24T11:17:32.812Z,8.57
2023-02-24T11:20:10.176Z,8.57
2023-02-24T11:22:41.604Z,8.57
2023-02-24T11:25:19.350Z,8.55
2023-02-24T11:27:48.206Z,8.53
2023-02-24T11:30:24.616Z,8.50
2023-02-24T11:33:16.710Z,8.48
2023-02-24T11:35:56.007Z,8.45
2023-02-24T11:38:36.408Z,8.44
2023-02-24T11:41:15.322Z,8.41
2023-02-24T11:43:55.809Z,8.40
2023-02-24T11:46:33.682Z,8.37
2023-02-24T11:49:06.545Z,8.39
2023-02-24T11:51:37.357Z,8.43
2023-02-24T11:54:10.551Z,8.49
2023-02-24T11:56:43.332Z,8.59
2023-02-24T11:59:17.094Z,8.69
2023-02-24T12:01:52.087Z,8.76
2023-02-24T12:04:24.516Z,8.80
2023-02-24T12:06:59.087Z,8.84
2023-02-24T12:09:33.483Z,8.89
2023-02-24T12:12:07.359Z,8.92
2023-02-24T12:14:40.704Z,8.93
2023-02-24T12:17:21.299Z,8.93
2023-02-24T12:20:05.322Z,8.94
2023-02-24T12:22:45.451Z,8.96
2023-02-24T12:25:16.584Z,9.01
2023-02-24T12:27:59.436Z,9.04
2023-02-24T12:30:48.085Z,9.03
2023-02-24T12:33:31.385Z,9.02
2023-02-24T12:36:12.178Z,9.10
2023-02-24T12:38:52.904Z,9.24
2023-02-24T12:41:39.375Z,9.37
2023-02-24T12:44:22.635Z,9.47
2023-02-24T12:47:03.280Z,9.51
2023-02-24T12:49:47.053Z,9.50
2023-02-24T12:52:20.149Z,9.49
2023-02-24T12:54:58.832Z,9.47
2023-02-24T12:57:33.247Z,9.42
2023-02-24T13:00:07.940Z,9.42
2023-02-24T13:02:48.746Z,9.39
2023-02-24T13:05:23.174Z,9.37
2023-02-24T13:08:09.159Z,9.35
2023-02-24T13:10:45.396Z,9.37
2023-02-24T13:13:21.952Z,9.36
2023-02-24T13:15:52.594Z,9.32
2023-02-24T13:18:29.658Z,9.27
2023-02-24T13:21:06.370Z,9.22
2023-02-24T13:23:36.569Z,9.19
2023-02-24T13:26:04.801Z,9.17
2023-02-24T13:28:35.588Z,9.16
2023-02-24T13:31:06.040Z,9.13
2023-02-24T13:33:38.855Z,9.09
2023-02-24T13:36:21.065Z,9.05
2023-02-24T13:38:50.912Z,9.02
2023-02-24T13:41:35.778Z,9.02
2023-02-24T13:44:22.330Z,9.01
2023-02-24T13:47:06.176Z,9.01
2023-02-24T13:49:42.563Z,9.00
2023-02-24T13:52:20.237Z,9.00
2023-02-24T13:55:03.268Z,9.03
2023-02-24T13:57:47.652Z,9.08
2023-02-24T14:00:26.464Z,9.10
2023-02-24T14:02:55.453Z,9.10
2023-02-24T14:05:27.899Z,9.07
2023-02-24T14:07:56.473Z,9.02
2023-02-24T14:10:26.262Z,8.98
2023-02-24T14:13:04.552Z,8.95
2023-02-24T14:15:34.432Z,8.95
2023-02-24T14:18:05.596Z,8.94
2023-02-24T14:20:36.869Z,8.91
2023-02-24T14:23:22.025Z,8.90
2023-02-24T14:25:54.609Z,8.93
2023-02-24T14:28:25.293Z,8.95
2023-02-24T14:30:58.743Z,8.97
2023-02-24T14:33:32.426Z,8.94
2023-02-24T14:36:01.583Z,8.91
2023-02-24T14:38:35.129Z,8.85
2023-02-24T14:41:05.238Z,8.78
2023-02-24T14:43:39.745Z,8.75
2023-02-24T14:46:07.948Z,8.72
2023-02-24T14:48:36.316Z,8.67
2023-02-24T14:51:09.224Z,8.63
2023-02-24T14:53:48.462Z,8.58
2023-02-24T14:56:17.536Z,8.54
2023-02-24T14:58:48.153Z,8.50
2023-02-24T15:01:27.348Z,8.47
2023-02-24T15:04:00.128Z,8.44
2023-02-24T15:06:31.900Z,8.42
2023-02-24T15:09:03.769Z,8.39
2023-02-24T15:11:32.773Z,8.35
2023-02-24T15:14:05.671Z,8.31
2023-02-24T15:16:39.103Z,8.26
2023-02-24T15:19:26.071Z,8.22
2023-02-24T15:21:54.886Z,8.18
2023-02-24T15:24:31.072Z,8.14
2023-02-24T15:27:19.707Z,8.12
2023-02-24T15:29:56.773Z,8.08
2023-02-24T15:32:27.813Z,8.04
2023-02-24T15:34:56.091Z,8.00
2023-02-24T15:37:27.129Z,7.96
2023-02-24T15:40:05.430Z,7.92
2023-02-24T15:42:35.256Z,7.88
2023-02-24T15:45:05.270Z,7.84
2023-02-24T15:47:44.065Z,7.80
2023-02-24T15:50:13.620Z,7.77
2023-02-24T15:52:42.295Z,7.73
2023-02-24T15:55:15.644Z,7.71
2023-02-24T15:57:45.110Z,7.71
2023-02-24T16:00:20.025Z,7.70
2023-02-24T16:02:49.716Z,7.72
2023-02-24T16:05:17.865Z,7.70
2023-02-24T16:07:47.849Z,7.68
2023-02-24T16:10:19.856Z,7.65
2023-02-24T16:12:52.089Z,7.62
2023-02-24T16:15:25.340Z,7.58
2023-02-24T16:17:54.190Z,7.51
2023-02-24T16:20:30.780Z,7.45
2023-02-24T16:23:00.911Z,7.39
2023-02-24T16:25:33.239Z,7.33
2023-02-24T16:28:01.746Z,7.31
2023-02-24T16:30:30.801Z,7.26
2023-02-24T16:33:00.780Z,7.21
2023-02-24T16:35:29.248Z,7.18
2023-02-24T16:37:57.464Z,7.14
2023-02-24T16:40:29.508Z,7.10
2023-02-24T16:42:57.629Z,7.06
2023-02-24T16:45:28.865Z,7.03
2023-02-24T16:48:02.040Z,6.99
2023-02-24T16:50:33.737Z,6.96
2023-02-24T16:53:02.125Z,6.91
2023-02-24T16:55:30.288Z,6.88
2023-02-24T16:57:58.445Z,6.84
2023-02-24T17:00:26.840Z,6.79
2023-02-24T17:02:55.101Z,6.76
2023-02-24T17:05:25.773Z,6.72
2023-02-24T17:07:55.277Z,6.67
2023-02-24T17:10:24.773Z,6.63
2023-02-24T17:12:53.163Z,6.59
2023-02-24T17:15:25.157Z,6.54
2023-02-24T17:17:53.322Z,6.51
2023-02-24T17:20:21.441Z,6.48
2023-02-24T17:22:49.646Z,6.45
2023-02-24T17:25:19.441Z,6.43
2023-02-24T17:27:47.739Z,6.40
2023-02-24T17:30:18.819Z,6.38
2023-02-24T17:32:46.789Z,6.35
2023-02-24T17:35:15.288Z,6.31
2023-02-24T17:37:43.546Z,6.28
2023-02-24T17:40:13.588Z,6.25
2023-02-24T17:42:42.376Z,6.23
2023-02-24T17:45:13.421Z,6.22
2023-02-24T17:47:42.183Z,6.21
2023-02-24T17:50:12.885Z,6.21
2023-02-24T17:52:41.434Z,6.20
2023-02-24T17:55:17.310Z,6.21
2023-02-24T17:57:45.590Z,6.20
2023-02-24T18:00:15.419Z,6.20
2023-02-24T18:02:43.907Z,6.19
2023-02-24T18:05:14.835Z,6.18
2023-02-24T18:07:43.011Z,6.16
2023-02-24T18:10:14.633Z,6.15
2023-02-24T18:12:43.039Z,6.13
2023-02-24T18:15:38.838Z,6.10
2023-02-24T18:18:22.070Z,6.09
2023-02-24T18:20:51.024Z,6.07
2023-02-24T18:23:19.234Z,6.06
2023-02-24T18:25:47.526Z,6.05
2023-02-24T18:28:16.597Z,6.03
2023-02-24T18:30:54.091Z,5.99
2023-02-24T18:33:22.949Z,5.98
2023-02-24T18:35:58.416Z,5.95
2023-02-24T18:38:27.525Z,5.94
2023-02-24T18:41:00.645Z,5.92
2023-02-24T18:43:30.269Z,5.90
2023-02-24T18:45:59.745Z,5.89
2023-02-24T18:48:28.821Z,5.88
2023-02-24T18:50:58.387Z,5.86
2023-02-24T18:53:30.609Z,5.81
2023-02-24T18:56:03.168Z,5.76
2023-02-24T18:58:31.600Z,5.70
2023-02-24T19:01:00.335Z,5.68
2023-02-24T19:03:28.756Z,5.65
2023-02-24T19:05:56.911Z,5.61
2023-02-24T19:08:26.328Z,5.57
2023-02-24T19:10:54.794Z,5.54
2023-02-24T19:13:31.681Z,5.51
2023-02-24T19:17:16.494Z,5.49
2023-02-24T19:19:46.067Z,5.44
2023-02-24T19:22:14.391Z,5.39
2023-02-24T19:24:42.936Z,5.36
2023-02-24T19:27:11.601Z,5.32
2023-02-24T19:29:39.993Z,5.28
2023-02-24T19:32:08.164Z,5.24
2023-02-24T19:35:21.604Z,5.18
2023-02-24T19:38:14.826Z,5.09
2023-02-24T19:40:43.816Z,5.02
2023-02-24T19:43:50.435Z,4.97
2023-02-24T19:46:19.257Z,4.92
2023-02-24T19:48:47.987Z,4.89
2023-02-24T19:51:19.459Z,4.83
2023-02-24T19:54:13.234Z,4.81
2023-02-24T19:56:41.321Z,4.77
2023-02-24T19:59:10.939Z,4.75
2023-02-24T20:01:38.996Z,4.72
2023-02-24T20:04:08.195Z,4.71
2023-02-24T20:06:38.194Z,4.70
2023-02-24T20:09:08.677Z,4.70
2023-02-24T20:11:38.020Z,4.68
2023-02-24T20:14:07.500Z,4.65
2023-02-24T20:16:37.484Z,4.64
2023-02-24T20:19:06.984Z,4.60
2023-02-24T20:21:36.431Z,4.57
2023-02-24T20:24:06.833Z,4.55
2023-02-24T20:26:36.919Z,4.53
2023-02-24T20:29:05.381Z,4.51
2023-02-24T20:31:33.974Z,4.49
2023-02-24T20:34:03.847Z,4.48
2023-02-24T20:36:32.501Z,4.47
2023-02-24T20:39:00.677Z,4.45
2023-02-24T20:41:29.183Z,4.45
2023-02-24T20:43:57.186Z,4.46
2023-02-24T20:46:27.735Z,4.45
2023-02-24T20:48:58.139Z,4.45
2023-02-24T20:51:27.202Z,4.46
2023-02-24T20:53:58.081Z,4.47
2023-02-24T20:56:28.358Z,4.48
2023-02-24T20:59:00.904Z,4.51
2023-02-24T21:01:30.603Z,4.54
2023-02-24T21:03:59.649Z,4.56
2023-02-24T21:06:28.708Z,4.57
2023-02-24T21:08:57.088Z,4.58
2023-02-24T21:11:25.921Z,4.58
2023-02-24T21:13:54.048Z,4.59
2023-02-24T21:16:23.890Z,4.61
2023-02-24T21:18:52.497Z,4.62
2023-02-24T21:21:21.312Z,4.63
2023-02-24T21:23:50.744Z,4.65
2023-02-24T21:26:19.267Z,4.66
2023-02-24T21:28:47.358Z,4.67
2023-02-24T21:31:17.506Z,4.71
2023-02-24T21:33:51.657Z,4.73
2023-02-24T21:36:22.837Z,4.77
2023-02-24T21:38:51.886Z,4.77
2023-02-24T21:41:20.074Z,4.78
2023-02-24T21:44:03.269Z,4.79
2023-02-24T21:46:31.771Z,4.77
2023-02-24T21:49:00.381Z,4.80
2023-02-24T21:51:29.473Z,4.84
2023-02-24T21:53:58.499Z,4.88
2023-02-24T21:56:28.739Z,4.90
2023-02-24T21:59:01.039Z,4.91
2023-02-24T22:01:34.575Z,4.94
2023-02-24T22:04:17.762Z,4.96
2023-02-24T22:06:53.265Z,4.97
2023-02-24T22:09:22.242Z,4.97
2023-02-24T22:11:51.443Z,4.96
2023-02-24T22:14:20.802Z,4.95
2023-02-24T22:16:49.899Z,4.95
2023-02-24T22:19:24.466Z,4.95
2023-02-24T22:21:54.806Z,4.93
2023-02-24T22:25:36.377Z,4.91
2023-02-24T22:28:11.362Z,4.90
2023-02-24T22:30:44.536Z,4.90
2023-02-24T22:33:35.092Z,4.91
2023-02-24T22:36:11.436Z,4.91
2023-02-24T22:38:48.499Z,4.92
2023-02-24T22:41:22.956Z,4.94
2023-02-24T22:43:57.334Z,4.94
2023-02-24T22:46:48.738Z,4.97
2023-02-24T22:49:19.039Z,4.99
2023-02-24T22:51:47.102Z,4.98
2023-02-24T22:54:20.896Z,4.97
2023-02-24T22:57:02.643Z,4.97
2023-02-24T22:59:31.260Z,4.98
2023-02-24T23:01:59.529Z,4.94
2023-02-24T23:04:49.474Z,4.94
2023-02-24T23:07:18.518Z,4.94
2023-02-24T23:10:14.891Z,4.95
2023-02-24T23:12:43.217Z,4.97
2023-02-24T23:15:13.188Z,4.97
2023-02-24T23:17:41.619Z,4.99
2023-02-24T23:20:12.149Z,5.00
2023-02-24T23:22:40.473Z,5.02
2023-02-24T23:25:10.448Z,5.04
2023-02-24T23:27:39.027Z,5.05
2023-02-24T23:30:11.658Z,5.06
2023-02-24T23:32:40.599Z,5.08
2023-02-24T23:35:10.859Z,5.07
2023-02-24T23:37:39.324Z,5.09
2023-02-24T23:40:10.766Z,5.10
2023-02-24T23:42:38.798Z,5.12
2023-02-24T23:45:09.397Z,5.13
2023-02-24T23:47:37.632Z,5.14
2023-02-24T23:50:07.045Z,5.15
2023-02-24T23:52:35.457Z,5.16
2023-02-24T23:55:06.169Z,5.17
2023-02-24T23:57:34.228Z,5.18
